Time;durP1;ratioP1;P1;durP2;ratioP2;P2;SDS_P1;SDS_P2;PMS_P1;PMS_P2;Temp;Humidity;BMP_temperature;BMP_pressure;BME280_temperature;BME280_humidity;BME280_pressure;Samples;Min_cycle;Max_cycle;Signal;HPM_P1;HPM_P2
2022/06/11 00:01:25;;;;;;;2.83;1.23;;;22.60;41.60;;;;;;8334936;28;20490;-40
2022/06/11 00:05:25;;;;;;;2.10;1.30;;;22.60;41.50;;;;;;8334856;28;20475;-40
2022/06/11 00:09:27;;;;;;;1.70;1.40;;;22.60;41.50;;;;;;8334694;28;20029;-40
2022/06/11 00:13:27;;;;;;;1.83;1.45;;;22.60;41.60;;;;;;8334488;28;20037;-40
2022/06/11 00:17:28;;;;;;;1.83;1.50;;;22.60;41.60;;;;;;8334271;28;20022;-40
2022/06/11 00:21:33;;;;;;;2.67;1.60;;;22.50;41.60;;;;;;8334391;28;20144;-40
2022/06/11 00:25:34;;;;;;;4.05;1.85;;;22.50;42.10;;;;;;8334108;28;20026;-40
2022/06/11 00:29:37;;;;;;;2.72;1.55;;;22.50;41.60;;;;;;8334481;28;20524;-40
2022/06/11 00:33:38;;;;;;;3.08;1.60;;;22.50;41.60;;;;;;8334218;28;20499;-40
2022/06/11 00:37:39;;;;;;;;;;;22.50;41.60;;;;;;8334180;28;20033;-40
2022/06/11 00:41:44;;;;;;;1.47;1.37;;;22.50;41.60;;;;;;8333978;28;20574;-40
2022/06/11 00:45:58;;;;;;;2.60;1.65;;;22.50;41.60;;;;;;8334124;28;20116;-40
2022/06/11 00:49:59;;;;;;;2.65;1.50;;;22.50;41.60;;;;;;8333721;28;20064;-40
2022/06/11 00:54:04;;;;;;;2.47;1.52;;;22.50;41.60;;;;;;8333824;28;20367;-40
2022/06/11 00:58:12;;;;;;;2.25;1.63;;;22.40;41.60;;;;;;8332285;28;20132;-40
2022/06/11 01:02:13;;;;;;;2.15;1.77;;;22.40;41.60;;;;;;8333137;28;20034;-40
2022/06/11 01:06:36;;;;;;;3.60;1.58;;;22.40;41.60;;;;;;8333426;28;20497;-40
2022/06/11 01:11:15;;;;;;;2.42;1.75;;;22.40;41.70;;;;;;8331652;28;20041;-41
2022/06/11 01:15:33;;;;;;;3.67;1.70;;;22.40;41.60;;;;;;8332644;28;20041;-41
2022/06/11 01:19:58;;;;;;;2.13;1.50;;;22.40;41.70;;;;;;8326347;28;20113;-40
2022/06/11 01:24:13;;;;;;;1.85;1.70;;;22.40;41.70;;;;;;8300121;28;20044;-41
2022/06/11 01:28:38;;;;;;;2.67;1.58;;;22.30;41.70;;;;;;8299483;28;20080;-41
2022/06/11 01:32:49;;;;;;;2.40;1.42;;;22.30;41.70;;;;;;8299443;28;20117;-41
2022/06/11 01:36:53;;;;;;;2.00;1.63;;;22.30;41.70;;;;;;8299189;28;20041;-41
2022/06/11 01:40:58;;;;;;;2.55;2.15;;;22.30;41.70;;;;;;8299604;28;20034;-40
2022/06/11 01:45:12;;;;;;;1.98;1.42;;;22.30;41.80;;;;;;8298991;28;20044;-40
2022/06/11 01:49:21;;;;;;;1.70;1.30;;;22.30;41.80;;;;;;8298855;28;20026;-40
2022/06/11 01:53:41;;;;;;;1.75;1.65;;;22.30;41.80;;;;;;8299006;28;20552;-41
2022/06/11 01:58:16;;;;;;;2.75;1.55;;;22.30;41.80;;;;;;8299219;28;20463;-41
2022/06/11 02:02:47;;;;;;;2.83;1.42;;;22.30;41.80;;;;;;8299090;28;20081;-41
2022/06/11 02:07:06;;;;;;;2.08;1.33;;;22.20;41.80;;;;;;8328162;28;20437;-41
2022/06/11 02:11:13;;;;;;;1.77;1.52;;;22.20;41.80;;;;;;8330771;28;20030;-41
2022/06/11 02:15:41;;;;;;;1.52;1.30;;;22.20;41.80;;;;;;8330803;28;20045;-41
2022/06/11 02:19:52;;;;;;;2.03;1.40;;;22.20;41.80;;;;;;8330759;28;20403;-41
2022/06/11 02:24:34;;;;;;;3.25;1.67;;;22.20;41.90;;;;;;8331156;28;20033;-41
2022/06/11 02:28:41;;;;;;;1.88;1.67;;;22.20;41.80;;;;;;8319625;28;20029;-41
2022/06/11 02:32:42;;;;;;;2.00;1.60;;;22.20;41.90;;;;;;8331093;28;20454;-42
2022/06/11 02:37:00;;;;;;;1.40;1.30;;;22.20;41.90;;;;;;8330354;28;20042;-41
2022/06/11 02:41:06;;;;;;;2.72;1.23;;;22.10;42.40;;;;;;8330224;28;20033;-42
2022/06/11 02:45:07;;;;;;;1.80;1.35;;;22.10;41.80;;;;;;8330282;28;20553;-41
2022/06/11 02:49:13;;;;;;;1.80;1.70;;;22.10;41.90;;;;;;8330109;28;20029;-41
2022/06/11 02:53:15;;;;;;;2.00;1.20;;;22.10;41.90;;;;;;8330267;28;20049;-41
2022/06/11 02:57:21;;;;;;;1.77;1.60;;;22.10;41.90;;;;;;8330115;28;20053;-42
2022/06/11 03:01:22;;;;;;;1.40;1.30;;;22.10;41.90;;;;;;8329900;28;20043;-41
2022/06/11 03:05:28;;;;;;;1.77;1.30;;;22.10;41.90;;;;;;8330292;28;20037;-41
2022/06/11 03:09:33;;;;;;;1.70;1.35;;;22.00;41.80;;;;;;8330325;28;20033;-41
2022/06/11 03:13:34;;;;;;;2.45;1.42;;;22.10;41.90;;;;;;8329797;28;20044;-42
2022/06/11 03:17:34;;;;;;;2.05;1.55;;;22.00;41.90;;;;;;8329721;28;20105;-41
2022/06/11 03:21:35;;;;;;;1.45;1.30;;;22.10;41.90;;;;;;8333734;28;20041;-41
2022/06/11 03:25:36;;;;;;;2.38;1.50;;;22.00;41.90;;;;;;8336099;28;20044;-41
2022/06/11 03:29:37;;;;;;;2.33;1.30;;;22.00;41.90;;;;;;8335925;28;20024;-41
2022/06/11 03:33:39;;;;;;;2.00;1.67;;;22.00;41.90;;;;;;8335972;28;20052;-41
2022/06/11 03:37:39;;;;;;;1.70;1.30;;;22.00;41.90;;;;;;8336118;28;20350;-41
2022/06/11 03:41:40;;;;;;;1.80;1.30;;;22.00;41.90;;;;;;8335497;28;20104;-41
2022/06/11 03:45:41;;;;;;;1.40;1.20;;;22.00;41.90;;;;;;8335956;28;20041;-41
2022/06/11 03:49:42;;;;;;;3.78;1.77;;;22.00;42.00;;;;;;8335307;28;20029;-41
2022/06/11 03:53:44;;;;;;;1.73;1.63;;;21.90;41.90;;;;;;8335335;28;20045;-41
2022/06/11 03:57:45;;;;;;;1.45;1.10;;;21.90;41.90;;;;;;8335720;28;20116;-42
2022/06/11 04:01:47;;;;;;;1.50;1.30;;;21.90;41.90;;;;;;8335076;28;20048;-41
2022/06/11 04:05:50;;;;;;;1.83;1.40;;;21.90;41.90;;;;;;8311217;28;20038;-42
2022/06/11 04:09:51;;;;;;;1.75;1.35;;;21.90;41.90;;;;;;8301921;28;20382;-42
2022/06/11 04:13:53;;;;;;;2.90;1.37;;;21.90;41.90;;;;;;8301928;28;20109;-42
2022/06/11 04:17:54;;;;;;;2.20;1.23;;;21.90;41.90;;;;;;8301617;28;20080;-41
2022/06/11 04:21:56;;;;;;;1.40;1.20;;;21.90;41.90;;;;;;8301727;28;20029;-42
2022/06/11 04:26:04;;;;;;;1.98;1.50;;;21.90;42.00;;;;;;8301422;28;20037;-42
2022/06/11 04:30:05;;;;;;;1.40;1.17;;;22.00;42.00;;;;;;8301350;28;20033;-40
2022/06/11 04:34:05;;;;;;;;;;;22.00;42.00;;;;;;8300523;28;20034;-40
2022/06/11 04:38:06;;;;;;;5.53;1.30;;;22.00;41.90;;;;;;8301320;28;19916;-40
2022/06/11 04:42:09;;;;;;;1.77;1.50;;;22.10;41.90;;;;;;8300927;28;20471;-41
2022/06/11 04:46:11;;;;;;;1.83;1.30;;;22.10;41.90;;;;;;8300814;28;20386;-40
2022/06/11 04:50:16;;;;;;;2.13;1.38;;;22.10;41.90;;;;;;8301155;28;20436;-40
2022/06/11 04:54:16;;;;;;;1.35;1.20;;;22.10;41.90;;;;;;8300669;28;20026;-40
2022/06/11 04:58:17;;;;;;;1.83;1.60;;;22.20;41.90;;;;;;8300427;28;20088;-41
2022/06/11 05:02:18;;;;;;;1.30;1.20;;;22.20;41.80;;;;;;8300839;28;20029;-40
2022/06/11 05:06:22;;;;;;;2.30;1.58;;;22.20;41.80;;;;;;8300649;28;20049;-41
2022/06/11 05:10:25;;;;;;;1.50;0.98;;;22.20;41.80;;;;;;8300357;28;20525;-40
2022/06/11 05:14:26;;;;;;;1.95;1.63;;;22.20;41.70;;;;;;8299849;28;20038;-40
2022/06/11 05:18:27;;;;;;;;;;;22.20;41.70;;;;;;8300484;28;20034;-40
2022/06/11 05:22:28;;;;;;;1.60;1.30;;;22.30;41.60;;;;;;8299628;28;19909;-40
2022/06/11 05:26:51;;;;;;;1.30;1.20;;;22.30;41.40;;;;;;8299994;28;20548;-41
2022/06/11 05:30:52;;;;;;;2.60;1.70;;;22.50;41.20;;;;;;8299360;28;20036;-41
2022/06/11 05:34:53;;;;;;;1.67;1.30;;;22.60;40.90;;;;;;8299164;28;20029;-41
2022/06/11 05:38:54;;;;;;;1.15;1.05;;;22.60;40.90;;;;;;8299427;28;20026;-42
2022/06/11 05:42:54;;;;;;;1.43;1.23;;;22.50;40.90;;;;;;8298748;28;20033;-41
2022/06/11 05:46:55;;;;;;;2.33;1.30;;;22.50;41.00;;;;;;8299032;28;20273;-42
2022/06/11 05:50:57;;;;;;;1.73;1.20;;;22.50;41.10;;;;;;8298890;28;20077;-41
2022/06/11 05:54:58;;;;;;;1.40;1.25;;;22.40;41.10;;;;;;8299065;28;20289;-40
2022/06/11 05:59:05;;;;;;;1.55;1.45;;;22.40;41.20;;;;;;8298885;28;20066;-41
2022/06/11 06:03:06;;;;;;;1.38;1.13;;;22.40;41.30;;;;;;8298510;28;20034;-42
2022/06/11 06:07:08;;;;;;;1.70;1.42;;;22.30;41.30;;;;;;8298378;28;20533;-41
2022/06/11 06:11:08;;;;;;;1.67;1.15;;;22.30;41.40;;;;;;8298209;28;20041;-41
2022/06/11 06:15:31;;;;;;;1.30;1.20;;;22.20;41.40;;;;;;8298226;28;20359;-41
2022/06/11 06:19:31;;;;;;;1.42;1.23;;;22.20;41.40;;;;;;8298911;28;20610;-41
2022/06/11 06:23:33;;;;;;;1.40;1.30;;;22.20;41.40;;;;;;8298285;28;20113;-41
2022/06/11 06:27:34;;;;;;;1.27;1.15;;;22.20;41.50;;;;;;8297885;28;20036;-41
2022/06/11 06:31:35;;;;;;;1.37;1.17;;;22.20;41.50;;;;;;8297858;28;20474;-41
2022/06/11 06:35:36;;;;;;;1.48;1.35;;;22.20;41.50;;;;;;8297765;28;20061;-41
2022/06/11 06:39:36;;;;;;;1.87;1.27;;;22.20;41.50;;;;;;8298338;28;20026;-41
2022/06/11 06:43:38;;;;;;;1.38;1.20;;;22.20;41.60;;;;;;8298081;28;20034;-41
2022/06/11 06:47:38;;;;;;;2.22;1.38;;;22.20;41.60;;;;;;8297461;28;20034;-41
2022/06/11 06:51:39;;;;;;;1.92;1.30;;;22.20;41.60;;;;;;8297579;28;20049;-41
2022/06/11 06:55:40;;;;;;;1.90;1.10;;;22.20;41.60;;;;;;8299592;28;20041;-41
2022/06/11 06:59:41;;;;;;;1.60;1.35;;;22.20;41.60;;;;;;8304368;28;20026;-41
2022/06/11 07:03:42;;;;;;;1.40;1.13;;;22.20;41.60;;;;;;8304225;28;20075;-41
2022/06/11 07:07:43;;;;;;;1.17;1.03;;;22.20;41.60;;;;;;8303662;28;20088;-41
2022/06/11 07:11:44;;;;;;;1.30;1.20;;;22.20;41.60;;;;;;8303684;28;20391;-41
2022/06/11 07:15:48;;;;;;;1.47;1.37;;;22.20;41.60;;;;;;8303927;28;20041;-41
2022/06/11 07:19:55;;;;;;;1.20;1.00;;;22.20;41.70;;;;;;8303606;28;20754;-41
2022/06/11 07:24:00;;;;;;;1.08;1.00;;;22.20;41.70;;;;;;8303400;28;20080;-41
2022/06/11 07:28:08;;;;;;;1.10;1.00;;;22.20;42.20;;;;;;8303094;28;20030;-41
2022/06/11 07:32:14;;;;;;;1.20;1.10;;;22.20;41.60;;;;;;8302961;28;20030;-41
2022/06/11 07:36:15;;;;;;;1.33;1.02;;;22.20;41.70;;;;;;8303365;28;20430;-41
2022/06/11 07:40:18;;;;;;;1.30;1.17;;;22.20;41.70;;;;;;8303128;28;20018;-41
2022/06/11 07:44:18;;;;;;;1.40;1.30;;;22.20;41.70;;;;;;8302612;28;20038;-41
2022/06/11 07:48:19;;;;;;;1.20;1.10;;;22.20;41.70;;;;;;8302666;28;20429;-41
2022/06/11 07:52:19;;;;;;;1.53;1.30;;;22.20;41.70;;;;;;8302695;28;20394;-41
2022/06/11 07:56:20;;;;;;;1.17;1.00;;;22.20;41.70;;;;;;8302671;28;20030;-41
2022/06/11 08:00:25;;;;;;;2.58;1.25;;;22.30;41.70;;;;;;8303361;28;20100;-41
2022/06/11 08:04:25;;;;;;;1.90;1.58;;;22.30;41.70;;;;;;8302298;28;20042;-41
2022/06/11 08:08:26;;;;;;;3.87;2.20;;;22.30;41.70;;;;;;8302147;28;20084;-41
2022/06/11 08:12:26;;;;;;;2.37;1.73;;;22.30;41.70;;;;;;8302074;28;20109;-41
2022/06/11 08:16:27;;;;;;;1.70;1.60;;;22.30;41.70;;;;;;8302411;28;20368;-41
2022/06/11 08:20:31;;;;;;;4.70;2.40;;;22.30;41.70;;;;;;8302283;28;20022;-42
2022/06/11 08:24:31;;;;;;;2.47;1.60;;;22.40;41.80;;;;;;8302021;28;20109;-42
2022/06/11 08:28:32;;;;;;;2.13;1.80;;;22.30;41.70;;;;;;8302123;28;20034;-41
2022/06/11 08:32:33;;;;;;;3.40;2.13;;;22.40;41.70;;;;;;8301883;28;20033;-41
2022/06/11 08:36:33;;;;;;;2.20;2.00;;;22.40;41.80;;;;;;8301533;28;20297;-41
2022/06/11 08:40:39;;;;;;;1.90;1.60;;;22.40;41.80;;;;;;8301382;28;20030;-41
2022/06/11 08:44:40;;;;;;;4.15;2.03;;;22.40;41.80;;;;;;8301380;28;20080;-41
2022/06/11 08:49:06;;;;;;;2.50;1.97;;;22.40;41.80;;;;;;8301218;28;20026;-41
2022/06/11 08:53:06;;;;;;;1.73;1.63;;;22.50;41.80;;;;;;8300819;28;20030;-40
2022/06/11 08:57:33;;;;;;;2.35;1.70;;;22.50;41.90;;;;;;8300438;28;20032;-41
2022/06/11 09:01:57;;;;;;;3.03;1.83;;;22.50;41.90;;;;;;8300355;28;20129;-41
2022/06/11 09:06:25;;;;;;;2.58;2.17;;;22.50;41.90;;;;;;8301271;28;20072;-41
2022/06/11 09:10:41;;;;;;;2.63;1.80;;;22.50;41.80;;;;;;8300648;28;20049;-41
2022/06/11 09:15:20;;;;;;;2.28;1.65;;;22.50;41.80;;;;;;8330280;28;20487;-41
2022/06/11 09:19:27;;;;;;;2.45;1.95;;;22.50;41.80;;;;;;8326081;28;20033;-41
2022/06/11 09:23:42;;;;;;;4.32;2.17;;;22.50;41.90;;;;;;8332829;28;20033;-41
2022/06/11 09:27:55;;;;;;;2.70;1.80;;;22.50;41.80;;;;;;8332583;28;20057;-40
2022/06/11 09:32:37;;;;;;;1.67;1.50;;;22.60;41.90;;;;;;8332154;28;20075;-40
2022/06/11 09:36:42;;;;;;;2.03;1.83;;;22.60;41.90;;;;;;8281345;28;20041;-41
2022/06/11 09:40:49;;;;;;;2.90;1.80;;;22.60;41.90;;;;;;8332556;28;20463;-40
2022/06/11 09:45:01;;;;;;;3.90;1.85;;;22.60;41.90;;;;;;8331590;28;20038;-40
2022/06/11 09:49:07;;;;;;;;;;;22.70;41.90;;;;;;8332010;28;20029;-40
2022/06/11 09:53:14;;;;;;;1.88;1.58;;;22.70;41.90;;;;;;8332173;28;19920;-40
2022/06/11 09:57:36;;;;;;;2.03;1.77;;;22.70;41.80;;;;;;8331313;28;20155;-40
2022/06/11 10:01:45;;;;;;;1.83;1.45;;;22.80;41.80;;;;;;8331111;28;20026;-40
2022/06/11 10:05:55;;;;;;;2.63;2.00;;;22.80;41.80;;;;;;8330657;28;20434;-40
2022/06/11 10:10:02;;;;;;;2.05;1.67;;;22.80;41.70;;;;;;8330892;28;20474;-39
2022/06/11 10:18:31;;;;;;;1.48;1.30;;;22.90;41.70;;;;;;8331439;28;20067;-40
2022/06/11 10:22:38;;;;;;;2.72;1.88;;;22.90;41.70;;;;;;8330464;28;20564;-40
2022/06/11 10:26:56;;;;;;;2.45;1.75;;;22.90;41.60;;;;;;8330542;28;20029;-40
2022/06/11 10:31:04;;;;;;;2.13;1.80;;;23.00;41.60;;;;;;8330678;28;20022;-41
2022/06/11 10:35:19;;;;;;;2.03;1.60;;;23.00;41.50;;;;;;8330825;28;20124;-40
2022/06/11 10:39:40;;;;;;;1.65;1.52;;;23.00;41.60;;;;;;8330870;28;20036;-41
2022/06/11 10:43:50;;;;;;;2.25;1.90;;;23.10;41.60;;;;;;8330316;28;20030;-41
2022/06/11 10:47:53;;;;;;;2.17;1.70;;;23.10;41.60;;;;;;8330231;28;20033;-40
2022/06/11 10:52:05;;;;;;;2.17;1.50;;;23.10;41.50;;;;;;8330059;28;20033;-40
2022/06/11 10:56:20;;;;;;;1.73;1.60;;;23.10;41.50;;;;;;8330402;28;20033;-40
2022/06/11 11:00:35;;;;;;;2.33;1.52;;;23.10;41.60;;;;;;8329998;28;20033;-40
2022/06/11 11:04:42;;;;;;;2.00;1.63;;;23.20;41.60;;;;;;8330129;28;20391;-40
2022/06/11 11:08:55;;;;;;;1.90;1.35;;;23.20;41.60;;;;;;8330364;28;20511;-41
2022/06/11 11:13:02;;;;;;;2.42;1.75;;;23.20;41.60;;;;;;8329963;28;20123;-41
2022/06/11 11:17:05;;;;;;;2.20;1.70;;;23.20;41.60;;;;;;8329794;28;20393;-40
2022/06/11 11:21:17;;;;;;;1.92;1.73;;;23.20;41.50;;;;;;8330428;28;20483;-41
2022/06/11 11:25:23;;;;;;;1.70;1.45;;;23.20;41.50;;;;;;8329768;28;20021;-41
2022/06/11 11:29:26;;;;;;;1.90;1.63;;;23.30;41.50;;;;;;8329499;28;20030;-41
2022/06/11 11:33:31;;;;;;;2.03;1.65;;;23.30;41.50;;;;;;8329854;28;20445;-40
2022/06/11 11:37:32;;;;;;;2.97;1.80;;;23.30;41.50;;;;;;8329477;28;20454;-40
2022/06/11 11:41:34;;;;;;;1.67;1.58;;;23.30;41.50;;;;;;8331490;28;20044;-40
2022/06/11 11:45:56;;;;;;;1.98;1.77;;;23.40;41.50;;;;;;8336101;28;20108;-41
2022/06/11 11:50:11;;;;;;;2.60;1.88;;;23.40;41.50;;;;;;8335449;28;20438;-39
2022/06/11 11:54:22;;;;;;;2.15;1.77;;;23.40;41.50;;;;;;8333922;28;20045;-41
2022/06/11 11:58:36;;;;;;;2.88;1.98;;;23.50;41.50;;;;;;8335633;28;20032;-40
2022/06/11 12:02:45;;;;;;;1.80;1.67;;;23.50;41.50;;;;;;8335043;28;20423;-41
2022/06/11 12:06:57;;;;;;;2.33;1.80;;;23.50;41.50;;;;;;8335715;28;20049;-40
2022/06/11 12:11:01;;;;;;;1.80;1.30;;;23.60;41.50;;;;;;8334804;28;20044;-40
2022/06/11 12:15:19;;;;;;;2.30;1.80;;;23.60;41.50;;;;;;8334551;28;20112;-41
2022/06/11 12:19:20;;;;;;;1.73;1.50;;;23.60;41.40;;;;;;8334294;28;20033;-42
2022/06/11 12:23:42;;;;;;;3.00;2.00;;;23.60;41.30;;;;;;8332988;28;20040;-41
2022/06/11 12:27:43;;;;;;;1.98;1.55;;;23.60;41.30;;;;;;8334231;28;20045;-41
2022/06/11 12:31:44;;;;;;;2.15;1.77;;;23.70;41.30;;;;;;8334773;28;20029;-41
2022/06/11 12:36:12;;;;;;;1.83;1.70;;;23.70;41.30;;;;;;8333801;28;20422;-41
2022/06/11 12:40:35;;;;;;;2.42;1.80;;;23.70;41.40;;;;;;8334259;28;20410;-41
2022/06/11 12:45:13;;;;;;;2.08;1.60;;;23.70;41.20;;;;;;8333661;28;20414;-41
2022/06/11 12:49:36;;;;;;;2.20;1.75;;;23.70;41.20;;;;;;8333519;28;20025;-40
2022/06/11 12:53:59;;;;;;;2.00;1.83;;;23.70;41.20;;;;;;8332175;28;20124;-41
2022/06/11 12:57:59;;;;;;;1.92;1.75;;;23.80;41.30;;;;;;8333317;28;20079;-40
2022/06/11 13:02:21;;;;;;;2.40;1.80;;;23.80;41.20;;;;;;8333400;28;20053;-41
2022/06/11 13:06:55;;;;;;;2.10;1.90;;;23.80;41.20;;;;;;8331975;28;20040;-40
2022/06/11 13:11:13;;;;;;;2.80;1.90;;;23.80;41.20;;;;;;8332968;28;20025;-41
2022/06/11 13:15:43;;;;;;;3.25;2.08;;;23.80;41.20;;;;;;8333217;28;20065;-41
2022/06/11 13:20:02;;;;;;;3.42;2.85;;;23.90;41.20;;;;;;8332517;28;20029;-41
2022/06/11 13:24:33;;;;;;;3.20;2.63;;;23.80;41.20;;;;;;8332790;28;20029;-41
2022/06/11 13:28:50;;;;;;;3.65;2.65;;;23.80;41.30;;;;;;8332567;28;20041;-40
2022/06/11 13:32:53;;;;;;;4.38;3.20;;;23.90;41.20;;;;;;8332418;28;20160;-40
2022/06/11 13:36:54;;;;;;;4.25;2.90;;;23.90;41.20;;;;;;8332373;28;20494;-41
2022/06/11 13:41:04;;;;;;;4.60;3.50;;;23.90;41.20;;;;;;8332087;28;20036;-41
2022/06/11 13:45:12;;;;;;;4.25;3.15;;;23.90;41.20;;;;;;8331995;28;20276;-41
2022/06/11 13:49:44;;;;;;;4.55;3.40;;;23.90;41.20;;;;;;8332165;28;20033;-41
2022/06/11 13:58:33;;;;;;;4.75;3.42;;;24.00;41.20;;;;;;8331347;28;20045;-41
2022/06/11 14:02:50;;;;;;;5.10;3.60;;;24.00;41.20;;;;;;8331888;28;20040;-41
2022/06/11 14:06:53;;;;;;;4.90;3.53;;;24.00;41.20;;;;;;8330817;28;20041;-41
2022/06/11 14:10:54;;;;;;;5.03;4.00;;;24.00;41.10;;;;;;8331047;28;20026;-41
2022/06/11 14:15:14;;;;;;;5.65;3.83;;;24.00;41.10;;;;;;8330916;28;20037;-41
2022/06/11 14:19:15;;;;;;;6.20;4.50;;;24.00;41.10;;;;;;8329921;28;20128;-40
2022/06/11 14:23:15;;;;;;;6.63;4.00;;;24.00;41.00;;;;;;8328420;28;20041;-40
2022/06/11 14:27:36;;;;;;;7.43;3.20;;;24.10;39.10;;;;;;8330259;28;20026;-40
2022/06/11 14:31:56;;;;;;;2.92;2.53;;;24.30;38.60;;;;;;8324393;28;20284;-39
2022/06/11 14:36:08;;;;;;;3.53;2.57;;;24.30;38.00;;;;;;8297302;28;20038;-40
2022/06/11 14:40:11;;;;;;;7.88;2.90;;;24.40;38.00;;;;;;8298072;28;20073;-38
2022/06/11 14:44:22;;;;;;;5.05;2.60;;;24.50;37.50;;;;;;8297561;28;20032;-38
2022/06/11 14:48:39;;;;;;;2.93;1.80;;;24.60;37.50;;;;;;8297676;28;20037;-38
2022/06/11 14:52:48;;;;;;;20.13;2.70;;;24.60;36.90;;;;;;8298029;28;20076;-39
2022/06/11 14:57:26;;;;;;;12.85;3.50;;;24.80;36.60;;;;;;8297725;28;20045;-39
2022/06/11 15:01:45;;;;;;;179.73;30.98;;;24.80;36.30;;;;;;8297796;28;20506;-39
2022/06/11 15:06:10;;;;;;;138.68;23.35;;;24.90;35.90;;;;;;8297457;28;20458;-39
2022/06/11 15:10:19;;;;;;;83.93;17.48;;;24.90;35.90;;;;;;8297804;28;20382;-40
2022/06/11 15:14:49;;;;;;;97.15;16.25;;;25.00;35.80;;;;;;8297079;28;20099;-40
2022/06/11 15:18:49;;;;;;;108.05;19.58;;;25.00;36.30;;;;;;8302354;28;20072;-40
2022/06/11 15:22:52;;;;;;;86.38;15.63;;;25.00;36.10;;;;;;8303651;28;20030;-40
2022/06/11 15:26:58;;;;;;;78.05;14.60;;;25.00;36.10;;;;;;8301983;28;20034;-40
2022/06/11 15:31:11;;;;;;;64.68;12.75;;;25.00;36.40;;;;;;8301672;28;20092;-40
2022/06/11 15:35:34;;;;;;;59.30;13.07;;;24.90;36.60;;;;;;8301943;28;20132;-41
2022/06/11 15:39:38;;;;;;;63.90;13.43;;;24.80;36.80;;;;;;8301589;28;20549;-41
2022/06/11 15:43:45;;;;;;;56.30;12.85;;;24.80;37.20;;;;;;8302014;28;20463;-40
2022/06/11 15:48:17;;;;;;;64.10;12.35;;;24.70;37.50;;;;;;8302932;28;20018;-39
2022/06/11 15:52:43;;;;;;;51.90;12.48;;;24.70;37.00;;;;;;8294813;28;20041;-42
2022/06/11 15:56:44;;;;;;;315.85;55.78;;;24.80;36.90;;;;;;8302552;28;20042;-41
2022/06/11 16:00:51;;;;;;;183.10;32.13;;;24.80;36.50;;;;;;8304011;28;20444;-39
2022/06/11 16:04:52;;;;;;;100.20;19.48;;;25.00;36.50;;;;;;8309791;28;20033;-40
2022/06/11 16:09:14;;;;;;;102.40;20.27;;;24.90;36.50;;;;;;8332588;28;20029;-40
2022/06/11 16:13:20;;;;;;;89.65;21.10;;;25.00;37.00;;;;;;8299130;28;20595;-41
2022/06/11 16:17:24;;;;;;;94.72;19.58;;;24.90;37.10;;;;;;8298793;28;20045;-41
2022/06/11 16:21:26;;;;;;;91.45;20.75;;;24.80;37.30;;;;;;8299754;28;20121;-41
2022/06/11 16:25:37;;;;;;;91.68;19.98;;;24.80;37.60;;;;;;8300761;28;20026;-40
2022/06/11 16:29:47;;;;;;;100.95;21.70;;;24.70;37.80;;;;;;8301511;28;20029;-40
2022/06/11 16:33:51;;;;;;;104.30;20.87;;;24.70;38.10;;;;;;8301691;28;20494;-40
2022/06/11 16:37:52;;;;;;;89.50;19.63;;;24.60;38.20;;;;;;8301240;28;20038;-40
2022/06/11 16:46:12;;;;;;;81.25;19.58;;;24.60;38.40;;;;;;8301580;28;19956;-40
2022/06/11 16:59:07;;;;;;;78.73;19.27;;;24.60;38.70;;;;;;8301526;28;20036;-40
2022/06/11 17:03:10;;;;;;;72.80;20.02;;;24.60;38.80;;;;;;8333411;28;20029;-41
2022/06/11 17:07:14;;;;;;;73.00;18.08;;;24.50;38.80;;;;;;8332965;28;20108;-41
2022/06/11 17:11:18;;;;;;;77.68;18.27;;;24.60;38.90;;;;;;8333475;28;20112;-40
2022/06/11 17:15:22;;;;;;;78.85;18.42;;;24.60;39.00;;;;;;8333331;28;20037;-40
2022/06/11 17:19:25;;;;;;;74.63;17.23;;;24.50;39.00;;;;;;8333231;28;20454;-40
2022/06/11 17:23:42;;;;;;;72.57;17.55;;;24.50;39.10;;;;;;8333154;28;20026;-40
2022/06/11 17:27:52;;;;;;;66.95;16.13;;;24.60;39.20;;;;;;8332597;28;20091;-40
2022/06/11 17:31:53;;;;;;;67.93;17.37;;;24.50;39.10;;;;;;8332329;28;20033;-40
2022/06/11 17:35:54;;;;;;;54.67;16.20;;;24.50;39.20;;;;;;8332740;28;20460;-41
2022/06/11 17:39:57;;;;;;;61.05;16.90;;;24.50;39.20;;;;;;8331580;28;20030;-41
2022/06/11 17:43:59;;;;;;;59.63;16.30;;;24.50;39.30;;;;;;8332180;28;20072;-41
2022/06/11 17:47:59;;;;;;;51.40;15.77;;;24.50;39.30;;;;;;8331907;28;20493;-41
2022/06/11 17:52:04;;;;;;;56.63;15.70;;;24.50;39.30;;;;;;8331946;28;20040;-41
2022/06/11 17:56:05;;;;;;;59.58;15.73;;;24.50;39.40;;;;;;8332482;28;20299;-40
2022/06/11 18:00:09;;;;;;;67.07;15.57;;;24.50;39.40;;;;;;8331977;28;20088;-41
2022/06/11 18:04:22;;;;;;;61.88;16.38;;;24.50;39.40;;;;;;8332001;28;20055;-40
2022/06/11 18:08:22;;;;;;;56.47;15.95;;;24.50;39.40;;;;;;8331315;28;20097;-40
2022/06/11 18:12:23;;;;;;;58.05;17.08;;;24.50;39.50;;;;;;8331122;28;20108;-40
2022/06/11 18:16:24;;;;;;;51.25;14.13;;;24.50;39.50;;;;;;8330936;28;20448;-40
2022/06/11 18:20:25;;;;;;;51.50;14.20;;;24.50;39.60;;;;;;8331335;28;20060;-40
2022/06/11 18:28:45;;;;;;;48.75;14.75;;;24.40;39.60;;;;;;8331021;28;20501;-40
2022/06/11 18:32:46;;;;;;;54.70;14.88;;;24.40;39.60;;;;;;8330459;28;20053;-40
2022/06/11 18:36:46;;;;;;;45.92;13.93;;;24.40;39.60;;;;;;8330412;28;20041;-41
2022/06/11 18:40:47;;;;;;;48.25;14.05;;;24.40;39.70;;;;;;8330277;28;20025;-40
2022/06/11 18:44:48;;;;;;;53.20;15.70;;;24.40;39.70;;;;;;8330383;28;20022;-40
2022/06/11 18:48:48;;;;;;;43.78;12.65;;;24.40;39.70;;;;;;8329792;28;20029;-41
2022/06/11 18:52:49;;;;;;;55.03;13.93;;;24.40;39.80;;;;;;8329092;28;20452;-41
2022/06/11 18:56:50;;;;;;;41.10;12.93;;;24.40;39.90;;;;;;8329811;28;20041;-40
2022/06/11 19:00:50;;;;;;;51.80;14.00;;;24.40;39.90;;;;;;8329756;28;20115;-41
2022/06/11 19:04:51;;;;;;;44.13;13.32;;;24.40;39.90;;;;;;8330385;28;20025;-41
2022/06/11 19:08:51;;;;;;;38.67;11.68;;;24.30;40.00;;;;;;8306704;28;20038;-41
2022/06/11 19:12:52;;;;;;;50.75;13.02;;;24.30;40.00;;;;;;8297001;28;20100;-41
2022/06/11 19:16:53;;;;;;;41.00;11.82;;;24.30;40.00;;;;;;8296960;28;20050;-41
2022/06/11 19:20:54;;;;;;;46.55;12.85;;;24.30;40.00;;;;;;8297597;28;20026;-41
2022/06/11 19:24:54;;;;;;;46.45;12.65;;;24.30;40.00;;;;;;8297358;28;20037;-41
2022/06/11 19:28:55;;;;;;;31.33;10.95;;;24.30;40.10;;;;;;8297023;28;20030;-41
2022/06/11 19:32:56;;;;;;;;;;;24.30;40.10;;;;;;8297742;28;20040;-40
2022/06/11 19:36:59;;;;;;;43.83;11.65;;;24.30;40.20;;;;;;8297252;28;20385;-39
2022/06/11 19:41:00;;;;;;;33.97;11.40;;;24.30;40.20;;;;;;8296741;28;20553;-40
2022/06/11 19:45:02;;;;;;;36.67;11.13;;;24.30;40.30;;;;;;8297505;28;20045;-40
2022/06/11 19:49:03;;;;;;;37.88;11.32;;;24.20;40.30;;;;;;8296529;28;20391;-40
2022/06/11 19:53:04;;;;;;;;;;;24.30;40.30;;;;;;8297195;28;20030;-40
2022/06/11 19:57:05;;;;;;;47.90;13.07;;;24.20;40.30;;;;;;8296980;28;19922;-40
2022/06/11 20:01:06;;;;;;;;;;;24.20;40.40;;;;;;8297424;28;20038;-40
2022/06/11 20:05:07;;;;;;;42.30;11.43;;;24.20;40.40;;;;;;8302272;28;19995;-40
2022/06/11 20:09:08;;;;;;;;;;;24.20;40.40;;;;;;8303076;28;20026;-41
2022/06/11 20:13:11;;;;;;;31.60;11.17;;;24.20;40.40;;;;;;8302354;28;20321;-40
2022/06/11 20:17:12;;;;;;;30.73;10.05;;;24.20;40.50;;;;;;8301902;28;20038;-40
2022/06/11 20:21:15;;;;;;;34.07;10.83;;;24.10;40.50;;;;;;8301909;28;20029;-40
2022/06/11 20:25:17;;;;;;;33.08;10.05;;;24.20;40.50;;;;;;8302057;28;20315;-40
2022/06/11 20:29:17;;;;;;;25.95;9.50;;;24.20;40.50;;;;;;8301876;28;20026;-40
2022/06/11 20:33:18;;;;;;;31.45;10.05;;;24.10;40.50;;;;;;8301486;28;20080;-41
2022/06/11 20:37:19;;;;;;;31.80;9.80;;;24.10;40.60;;;;;;8301364;28;20041;-41
2022/06/11 20:41:19;;;;;;;29.83;10.55;;;24.10;40.50;;;;;;8301297;28;20073;-40
2022/06/11 20:45:22;;;;;;;30.70;10.55;;;24.10;40.60;;;;;;8301469;28;20040;-40
2022/06/11 20:53:41;;;;;;;29.33;9.23;;;24.10;40.60;;;;;;8301215;28;20122;-40
2022/06/11 20:57:42;;;;;;;25.67;8.90;;;24.10;40.70;;;;;;8300751;28;20030;-40
2022/06/11 21:01:43;;;;;;;32.22;10.35;;;24.10;40.70;;;;;;8300681;28;20456;-40
2022/06/11 21:05:43;;;;;;;29.80;9.05;;;24.10;40.70;;;;;;8300924;28;20038;-41
2022/06/11 21:09:47;;;;;;;24.33;8.48;;;24.00;40.70;;;;;;8300666;28;20040;-41
2022/06/11 21:13:47;;;;;;;23.55;8.77;;;24.10;40.80;;;;;;8299060;28;20042;-41
2022/06/11 21:17:50;;;;;;;23.58;8.98;;;24.00;40.70;;;;;;8300436;28;20158;-41
2022/06/11 21:22:08;;;;;;;19.95;7.80;;;24.10;40.70;;;;;;8299883;28;20117;-40
2022/06/11 21:26:08;;;;;;;22.58;8.27;;;24.00;40.70;;;;;;8299891;28;20034;-40
2022/06/11 21:30:11;;;;;;;23.70;8.43;;;24.00;40.70;;;;;;8299986;28;20029;-39
2022/06/11 21:34:11;;;;;;;22.48;7.82;;;24.00;40.70;;;;;;8299274;28;20331;-41
2022/06/11 21:38:12;;;;;;;22.85;8.48;;;24.00;40.80;;;;;;8299609;28;20036;-40
2022/06/11 21:42:14;;;;;;;21.67;7.65;;;24.00;40.80;;;;;;8299684;28;20037;-41
2022/06/11 21:46:15;;;;;;;21.65;7.80;;;24.00;40.80;;;;;;8299302;28;20446;-41
2022/06/11 21:50:20;;;;;;;18.10;7.07;;;24.00;40.80;;;;;;8299583;28;20041;-41